Time;durP1;ratioP1;P1;durP2;ratioP2;P2;SDS_P1;SDS_P2;PMS_P1;PMS_P2;Temp;Humidity;BMP_temperature;BMP_pressure;BME280_temperature;BME280_humidity;BME280_pressure;Samples;Min_cycle;Max_cycle;Signal;HPM_P1;HPM_P2
2021/03/13 00:01:18;;;;;;;18.98;9.88;;;;;;;3.97;60.39;99376.52;128016;1101;23532;-71
2021/03/13 00:03:47;;;;;;;27.73;11.33;;;;;;;3.97;59.75;99376.52;128202;1101;22525;-72
2021/03/13 00:06:15;;;;;;;25.57;12.78;;;;;;;3.96;59.54;99379.27;128089;1100;22487;-72
2021/03/13 00:08:43;;;;;;;26.87;14.78;;;;;;;3.93;59.56;99364.73;128171;1101;22623;-72
2021/03/13 00:11:12;;;;;;;25.25;14.20;;;;;;;3.93;59.68;99366.50;128160;1100;22584;-72
2021/03/13 00:13:41;;;;;;;29.50;15.23;;;;;;;3.89;59.53;99363.37;128002;1101;24363;-74
2021/03/13 00:16:10;;;;;;;27.75;15.45;;;;;;;3.86;59.79;99366.27;127995;1101;22508;-72
2021/03/13 00:18:39;;;;;;;29.67;15.20;;;;;;;3.85;60.30;99356.80;128227;1100;24597;-72
2021/03/13 00:21:07;;;;;;;35.97;16.87;;;;;;;3.84;60.10;99349.12;127900;1100;22646;-72
2021/03/13 00:23:35;;;;;;;30.88;14.78;;;;;;;3.84;59.78;99355.17;128188;1101;22522;-73
2021/03/13 00:26:03;;;;;;;25.27;12.13;;;;;;;3.79;60.45;99349.55;128203;1100;22506;-73
2021/03/13 00:28:32;;;;;;;27.45;13.60;;;;;;;3.74;59.64;99351.81;128190;1100;22491;-72
2021/03/13 00:31:00;;;;;;;23.10;12.15;;;;;;;3.67;60.04;99350.77;128101;1101;22562;-72
2021/03/13 00:33:31;;;;;;;22.32;12.50;;;;;;;3.61;60.48;99352.16;128166;1099;22596;-72
2021/03/13 00:35:59;;;;;;;29.92;12.65;;;;;;;3.58;60.30;99352.45;128215;1101;24347;-72
2021/03/13 00:38:28;;;;;;;21.95;13.22;;;;;;;3.55;60.53;99347.52;128194;1100;23261;-72
2021/03/13 00:40:56;;;;;;;23.27;11.93;;;;;;;3.52;60.12;99338.19;128213;1101;22487;-74
2021/03/13 00:43:24;;;;;;;22.45;12.37;;;;;;;3.49;60.70;99342.89;128194;1101;22583;-73
2021/03/13 00:45:52;;;;;;;22.00;12.28;;;;;;;3.46;60.75;99340.56;128203;1099;22522;-73
2021/03/13 00:48:20;;;;;;;20.20;12.55;;;;;;;3.41;61.08;99335.80;127958;1101;22497;-73
2021/03/13 00:50:50;;;;;;;22.87;12.53;;;;;;;3.39;61.32;99337.72;128126;1099;22526;-73
2021/03/13 00:53:18;;;;;;;26.27;13.80;;;;;;;3.37;61.35;99334.45;128174;1101;22488;-73
2021/03/13 00:55:46;;;;;;;24.65;12.45;;;;;;;3.36;61.21;99330.18;127974;1101;22613;-73
2021/03/13 00:58:21;;;;;;;22.67;11.40;;;;;;;3.35;60.79;99325.94;128178;1101;22681;-73
2021/03/13 01:00:56;;;;;;;20.60;11.75;;;;;;;3.36;60.81;99322.34;128190;1101;23460;-72
2021/03/13 01:03:27;;;;;;;21.62;11.10;;;;;;;3.36;61.23;99319.73;128194;1099;22523;-73
2021/03/13 01:05:55;;;;;;;19.48;11.10;;;;;;;3.39;60.93;99310.80;128199;1100;22613;-73
2021/03/13 01:08:24;;;;;;;18.35;10.90;;;;;;;3.41;61.76;99301.04;128197;1099;22492;-73
2021/03/13 01:10:58;;;;;;;24.63;12.43;;;;;;;3.42;61.20;99307.89;127972;1101;22493;-73
2021/03/13 01:13:29;;;;;;;21.57;11.65;;;;;;;3.42;61.85;99303.48;128172;1099;22554;-73
2021/03/13 01:15:57;;;;;;;19.47;11.67;;;;;;;3.46;60.79;99293.56;128117;1101;22544;-73
2021/03/13 01:18:25;;;;;;;17.00;10.63;;;;;;;3.46;60.95;99299.61;128169;1100;22482;-72
2021/03/13 01:20:54;;;;;;;18.35;10.28;;;;;;;3.43;60.77;99296.47;128223;1100;22521;-72
2021/03/13 01:23:27;;;;;;;27.17;12.25;;;;;;;3.40;61.54;99288.94;128166;1101;22491;-72
2021/03/13 01:25:55;;;;;;;22.30;12.68;;;;;;;3.37;61.21;99290.08;128080;1100;22420;-73
2021/03/13 01:28:23;;;;;;;18.50;10.72;;;;;;;3.36;61.75;99285.80;128231;1099;22472;-73
2021/03/13 01:31:03;;;;;;;19.17;10.65;;;;;;;3.34;61.77;99285.14;128230;1101;22488;-72
2021/03/13 01:33:32;;;;;;;16.75;10.13;;;;;;;3.37;60.99;99278.81;128322;1099;23354;-73
2021/03/13 01:36:02;;;;;;;21.90;10.68;;;;;;;3.38;61.81;99267.39;127967;1100;22609;-75
2021/03/13 01:38:32;;;;;;;21.52;10.53;;;;;;;3.37;61.86;99266.58;128151;1100;23478;-74
2021/03/13 01:41:01;;;;;;;18.00;10.48;;;;;;;3.37;61.69;99266.58;128185;1100;22489;-73
2021/03/13 01:43:30;;;;;;;18.07;9.88;;;;;;;3.38;62.01;99265.59;127942;1101;22492;-72
2021/03/13 01:45:59;;;;;;;20.45;9.68;;;;;;;3.39;61.92;99258.58;128166;1101;22494;-73
2021/03/13 01:48:35;;;;;;;19.60;10.58;;;;;;;3.44;62.21;99264.20;128176;1101;23072;-72
2021/03/13 01:51:06;;;;;;;16.62;9.08;;;;;;;3.44;61.70;99256.36;128233;1101;24574;-72
2021/03/13 01:53:36;;;;;;;13.97;9.37;;;;;;;3.47;61.60;99250.84;127973;1101;23516;-72
2021/03/13 01:56:05;;;;;;;18.67;9.60;;;;;;;3.44;61.85;99251.14;127953;1101;22497;-72
2021/03/13 01:58:37;;;;;;;15.67;9.30;;;;;;;3.42;61.70;99251.27;128210;1101;22488;-73
2021/03/13 02:01:25;;;;;;;18.42;9.88;;;;;;;3.43;62.20;99252.09;128017;1101;23672;-73
2021/03/13 02:03:53;;;;;;;13.55;9.20;;;;;;;3.46;61.42;99249.19;128188;1101;22591;-73
2021/03/13 02:06:22;;;;;;;16.52;9.03;;;;;;;3.47;62.29;99238.61;128204;1101;22493;-72
2021/03/13 02:09:29;;;;;;;13.90;8.45;;;;;;;3.49;62.22;99241.88;128167;1099;22513;-72
2021/03/13 02:12:09;;;;;;;18.27;9.75;;;;;;;3.51;61.55;99233.91;127963;1101;22529;-72
2021/03/13 02:15:08;;;;;;;21.02;11.22;;;;;;;3.53;62.34;99245.00;128234;1100;22476;-72
2021/03/13 02:18:08;;;;;;;21.52;10.55;;;;;;;3.56;61.60;99238.67;128210;1100;25198;-72
2021/03/13 02:21:12;;;;;;;18.95;10.13;;;;;;;3.57;62.24;99238.53;127914;1103;22548;-72
2021/03/13 02:24:25;;;;;;;16.00;8.48;;;;;;;3.59;61.59;99238.37;127858;1104;22961;-72
2021/03/13 02:26:59;;;;;;;17.12;9.58;;;;;;;3.55;62.06;99216.96;127880;1105;22515;-72
2021/03/13 02:29:48;;;;;;;13.65;8.20;;;;;;;3.52;62.04;99215.46;127892;1104;23429;-72
2021/03/13 02:33:11;;;;;;;14.75;9.18;;;;;;;3.50;61.72;99214.81;127915;1101;22546;-73
2021/03/13 02:36:02;;;;;;;17.53;9.07;;;;;;;3.53;61.88;99214.52;127888;1103;22586;-73
2021/03/13 02:38:50;;;;;;;15.08;8.75;;;;;;;3.58;61.88;99221.07;127848;1103;22874;-72
2021/03/13 02:41:33;;;;;;;17.92;8.95;;;;;;;3.62;62.23;99210.16;127900;1103;22593;-72
2021/03/13 02:44:04;;;;;;;19.07;11.38;;;;;;;3.63;62.20;99211.82;127952;1104;24600;-73
2021/03/13 02:46:43;;;;;;;22.05;17.05;;;;;;;3.63;61.76;99209.20;127892;1105;22708;-73
2021/03/13 02:49:16;;;;;;;24.77;19.92;;;;;;;3.63;61.79;99208.36;127912;1105;22435;-72
2021/03/13 02:51:47;;;;;;;29.82;24.05;;;;;;;3.63;62.32;99214.44;127553;1104;24373;-72
2021/03/13 02:54:17;;;;;;;26.77;23.83;;;;;;;3.67;61.79;99212.34;127857;1103;22548;-73
2021/03/13 02:56:46;;;;;;;26.13;21.77;;;;;;;3.67;62.55;99212.34;127963;1103;24625;-72
2021/03/13 02:59:19;;;;;;;24.98;19.12;;;;;;;3.71;62.57;99224.12;128220;1100;22519;-73
2021/03/13 03:02:09;;;;;;;18.20;14.78;;;;;;;3.73;61.76;99214.31;128220;1101;24475;-73
2021/03/13 03:04:40;;;;;;;21.07;14.90;;;;;;;3.77;62.79;99229.55;128207;1101;24591;-72
2021/03/13 03:07:10;;;;;;;16.97;11.57;;;;;;;3.88;62.04;99232.89;128240;1100;22773;-73
2021/03/13 03:09:40;;;;;;;15.48;9.95;;;;;;;3.98;62.27;99236.23;128008;1101;22567;-72
2021/03/13 03:12:11;;;;;;;12.90;8.70;;;;;;;4.06;61.78;99230.23;127997;1101;22526;-72
2021/03/13 03:14:46;;;;;;;15.43;8.60;;;;;;;4.10;62.52;99235.02;128213;1100;24416;-72
2021/03/13 03:17:16;;;;;;;10.23;6.35;;;;;;;4.16;61.84;99229.15;127976;1100;24645;-72
2021/03/13 03:19:47;;;;;;;12.73;6.70;;;;;;;4.20;61.83;99230.51;128057;1101;22487;-72
2021/03/13 03:22:17;;;;;;;9.65;5.50;;;;;;;4.27;62.17;99222.05;128212;1100;22478;-73
2021/03/13 03:24:54;;;;;;;10.90;6.00;;;;;;;4.33;61.31;99210.95;127971;1101;22488;-72
2021/03/13 03:27:22;;;;;;;10.23;5.03;;;;;;;4.40;61.63;99223.27;127931;1101;22523;-73
2021/03/13 03:29:52;;;;;;;12.00;5.30;;;;;;;4.47;61.72;99229.51;128199;1099;22490;-72
2021/03/13 03:32:32;;;;;;;9.50;5.75;;;;;;;4.54;61.12;99226.27;128101;1101;25198;-72
2021/03/13 03:35:01;;;;;;;10.48;5.87;;;;;;;4.60;61.01;99218.62;128111;1101;24597;-72
2021/03/13 03:37:29;;;;;;;11.48;5.85;;;;;;;4.68;61.44;99213.41;127927;1100;22626;-72
2021/03/13 03:39:58;;;;;;;9.13;5.53;;;;;;;4.74;60.69;99206.73;128217;1099;22473;-73
2021/03/13 03:42:29;;;;;;;7.17;4.42;;;;;;;4.82;60.74;99216.39;127969;1099;22493;-73
2021/03/13 03:45:01;;;;;;;9.58;4.75;;;;;;;4.86;60.96;99229.00;128168;1099;24597;-73
2021/03/13 03:47:33;;;;;;;9.30;4.72;;;;;;;4.87;60.09;99238.50;127978;1100;22692;-73
2021/03/13 03:50:06;;;;;;;10.32;4.95;;;;;;;4.90;60.10;99245.23;127947;1101;23373;-73
2021/03/13 03:52:51;;;;;;;9.35;5.00;;;;;;;4.92;60.01;99238.83;128173;1101;22579;-73
2021/03/13 03:55:20;;;;;;;9.23;5.25;;;;;;;4.92;60.83;99243.25;127967;1100;22500;-73
2021/03/13 03:57:51;;;;;;;8.38;4.78;;;;;;;4.92;60.34;99243.25;128138;1100;22474;-72
2021/03/13 04:00:21;;;;;;;8.95;4.90;;;;;;;4.93;60.47;99252.73;127967;1101;23348;-73
2021/03/13 04:02:57;;;;;;;7.83;4.67;;;;;;;4.97;60.91;99246.23;128218;1101;24578;-72
2021/03/13 04:05:26;;;;;;;8.48;4.78;;;;;;;5.02;61.03;99254.41;128133;1099;22523;-72
2021/03/13 04:07:55;;;;;;;9.58;5.05;;;;;;;5.06;61.46;99245.25;128158;1100;22492;-72
2021/03/13 04:10:24;;;;;;;9.93;4.72;;;;;;;5.09;61.97;99244.13;127965;1101;22592;-73
2021/03/13 04:12:56;;;;;;;8.83;5.20;;;;;;;5.10;61.31;99246.59;127946;1101;22495;-72
2021/03/13 04:15:24;;;;;;;11.08;4.92;;;;;;;5.07;61.60;99235.62;128216;1101;22660;-72
2021/03/13 04:17:53;;;;;;;10.93;4.62;;;;;;;5.05;62.44;99230.53;127979;1101;22550;-72
2021/03/13 04:20:22;;;;;;;7.33;4.25;;;;;;;5.02;62.42;99225.61;128186;1099;22486;-72
2021/03/13 04:22:51;;;;;;;6.00;3.72;;;;;;;5.00;62.94;99221.52;127957;1101;22526;-72
2021/03/13 04:25:19;;;;;;;6.17;3.95;;;;;;;5.00;62.63;99221.52;128207;1100;22564;-72
2021/03/13 04:27:48;;;;;;;6.05;3.52;;;;;;;5.00;63.08;99218.89;128291;1101;22492;-72
2021/03/13 04:30:19;;;;;;;5.35;2.72;;;;;;;4.99;63.47;99223.31;128183;1100;24673;-72
2021/03/13 04:32:56;;;;;;;8.93;3.17;;;;;;;5.00;63.68;99222.36;128225;1099;22476;-72
2021/03/13 04:35:27;;;;;;;5.67;3.83;;;;;;;5.00;63.73;99214.50;128164;1101;22500;-72
2021/03/13 04:37:57;;;;;;;8.78;4.53;;;;;;;4.96;63.47;99213.16;128303;1101;22553;-72
2021/03/13 04:40:25;;;;;;;8.25;5.78;;;;;;;4.97;63.76;99209.59;127931;1101;22596;-72
2021/03/13 04:42:55;;;;;;;13.65;5.83;;;;;;;5.00;64.20;99213.66;128220;1100;22549;-72
2021/03/13 04:45:25;;;;;;;9.90;4.90;;;;;;;5.00;64.58;99224.13;128149;1100;23199;-72
2021/03/13 04:47:54;;;;;;;12.05;6.03;;;;;;;4.99;64.14;99227.73;128200;1101;22581;-72
2021/03/13 04:50:23;;;;;;;14.60;5.42;;;;;;;4.97;64.92;99227.91;127987;1101;23239;-73
2021/03/13 04:52:51;;;;;;;9.75;4.28;;;;;;;4.97;64.65;99229.70;128043;1101;22774;-72
2021/03/13 04:55:19;;;;;;;9.68;5.30;;;;;;;4.95;65.00;99237.70;128185;1101;22488;-73
2021/03/13 04:57:48;;;;;;;9.10;4.85;;;;;;;4.94;64.92;99226.42;128167;1099;25938;-73
2021/03/13 05:00:18;;;;;;;8.80;5.00;;;;;;;4.97;65.77;99225.29;128213;1100;24607;-73
2021/03/13 05:02:46;;;;;;;14.95;10.38;;;;;;;4.99;65.41;99227.73;128280;1101;22508;-72
2021/03/13 05:05:15;;;;;;;20.57;14.40;;;;;;;4.98;65.34;99218.25;128183;1101;24572;-73
2021/03/13 05:07:43;;;;;;;23.80;16.48;;;;;;;4.99;65.62;99219.88;128162;1101;24575;-75
2021/03/13 05:10:12;;;;;;;12.63;8.70;;;;;;;4.98;65.35;99215.63;127916;1101;22570;-73
2021/03/13 05:12:40;;;;;;;9.60;5.45;;;;;;;4.94;65.44;99220.38;128166;1100;24588;-72
2021/03/13 05:15:09;;;;;;;7.00;5.22;;;;;;;4.93;66.25;99221.33;128148;1100;22521;-73
2021/03/13 05:17:37;;;;;;;11.88;5.37;;;;;;;4.91;65.92;99224.12;128113;1099;22478;-72
2021/03/13 05:20:07;;;;;;;9.43;4.90;;;;;;;4.92;66.14;99219.70;128148;1099;22522;-71
2021/03/13 05:22:35;;;;;;;7.72;5.10;;;;;;;4.90;66.42;99230.34;128205;1100;24390;-72
2021/03/13 05:25:06;;;;;;;12.37;6.20;;;;;;;4.89;66.81;99231.30;127921;1099;22521;-72
2021/03/13 05:27:38;;;;;;;10.98;5.75;;;;;;;4.90;66.87;99224.29;128182;1101;23333;-71
2021/03/13 05:30:09;;;;;;;12.23;5.20;;;;;;;4.89;66.92;99230.48;128190;1100;24610;-73
2021/03/13 05:32:39;;;;;;;9.23;5.07;;;;;;;4.85;66.46;99235.22;128019;1100;22619;-72
2021/03/13 05:35:11;;;;;;;13.60;9.18;;;;;;;4.82;66.35;99230.30;128140;1099;22522;-73
2021/03/13 05:37:40;;;;;;;11.20;9.15;;;;;;;4.82;67.19;99226.86;128180;1100;22508;-72
2021/03/13 05:40:10;;;;;;;10.13;5.87;;;;;;;4.80;67.03;99231.42;128275;1101;22504;-71
2021/03/13 05:42:39;;;;;;;8.13;5.92;;;;;;;4.78;67.44;99234.21;128231;1099;22525;-72
2021/03/13 05:45:09;;;;;;;8.15;6.30;;;;;;;4.79;67.22;99232.41;128226;1100;22488;-72
2021/03/13 05:47:39;;;;;;;9.18;7.20;;;;;;;4.77;67.38;99229.16;128021;1101;22589;-72
2021/03/13 05:50:11;;;;;;;10.68;8.08;;;;;;;4.77;67.28;99235.20;128039;1101;22567;-72
2021/03/13 05:52:40;;;;;;;;;;;;;;;4.72;67.40;99232.22;128037;1101;22523;-72
2021/03/13 05:55:09;;;;;;;14.20;8.23;;;;;;;4.66;67.17;99244.13;128166;1099;21297;-72
2021/03/13 05:57:38;;;;;;;14.00;8.40;;;;;;;4.70;67.39;99244.66;128143;1099;22552;-72
2021/03/13 06:00:07;;;;;;;17.03;9.77;;;;;;;4.75;67.45;99246.79;128175;1101;22492;-72
2021/03/13 06:02:42;;;;;;;14.98;10.25;;;;;;;4.80;68.04;99244.50;128189;1100;22500;-72
2021/03/13 06:05:12;;;;;;;15.25;10.32;;;;;;;4.80;67.57;99255.81;127971;1101;22495;-72
2021/03/13 06:07:42;;;;;;;12.80;9.40;;;;;;;4.84;67.91;99264.17;128037;1101;22479;-72
2021/03/13 06:10:15;;;;;;;13.48;7.67;;;;;;;4.89;68.42;99260.08;128356;1101;22633;-72
2021/03/13 06:12:43;;;;;;;;;;;;;;;4.89;68.50;99261.88;128157;1099;23017;-72
2021/03/13 06:15:12;;;;;;;13.70;8.03;;;;;;;4.87;68.44;99266.48;128175;1100;21361;-72
2021/03/13 06:17:58;;;;;;;12.80;8.00;;;;;;;4.93;68.51;99260.58;128177;1100;22494;-72
2021/03/13 06:20:38;;;;;;;14.05;8.88;;;;;;;4.99;68.69;99257.34;128178;1101;22503;-73
2021/03/13 06:23:06;;;;;;;12.68;7.95;;;;;;;5.04;68.11;99262.12;128176;1101;22614;-73
2021/03/13 06:25:37;;;;;;;13.32;7.87;;;;;;;5.10;68.13;99266.72;128179;1099;22762;-73
2021/03/13 06:28:17;;;;;;;15.98;8.73;;;;;;;5.12;68.52;99265.56;128016;1101;24226;-73
2021/03/13 06:30:49;;;;;;;13.00;7.58;;;;;;;5.17;68.25;99258.06;128159;1101;22467;-74
2021/03/13 06:33:32;;;;;;;14.33;8.23;;;;;;;5.19;68.41;99258.70;128078;1101;22574;-74
2021/03/13 06:36:06;;;;;;;17.60;9.60;;;;;;;5.21;67.80;99263.80;128141;1101;22990;-74
2021/03/13 06:38:36;;;;;;;17.12;10.28;;;;;;;5.21;67.56;99263.80;128162;1101;22592;-74
2021/03/13 06:41:16;;;;;;;18.03;9.40;;;;;;;5.32;68.50;99267.91;128235;1100;24715;-74
2021/03/13 06:43:50;;;;;;;17.17;10.23;;;;;;;5.43;68.45;99272.83;128217;1099;24574;-74
2021/03/13 06:46:21;;;;;;;17.92;10.18;;;;;;;5.59;68.05;99272.05;128192;1101;22519;-74
2021/03/13 06:48:54;;;;;;;16.67;9.50;;;;;;;5.76;68.14;99276.31;128268;1101;22498;-73
2021/03/13 06:51:32;;;;;;;14.40;8.27;;;;;;;5.90;67.25;99264.38;127994;1101;22521;-73
2021/03/13 06:54:11;;;;;;;13.60;7.65;;;;;;;6.08;67.08;99274.71;128243;1101;22499;-73
2021/03/13 06:56:57;;;;;;;15.90;8.20;;;;;;;6.28;67.57;99267.31;128191;1101;23358;-73
2021/03/13 06:59:45;;;;;;;13.28;8.10;;;;;;;6.55;67.40;99271.36;128270;1101;22499;-75
2021/03/13 07:02:14;;;;;;;12.25;7.50;;;;;;;6.83;66.54;99274.37;128156;1100;22488;-74
2021/03/13 07:04:44;;;;;;;11.12;8.00;;;;;;;7.11;66.28;99284.45;128209;1100;22624;-75
2021/03/13 07:07:27;;;;;;;13.75;8.25;;;;;;;7.33;65.29;99277.59;128145;1101;22566;-77
2021/03/13 07:09:58;;;;;;;13.22;8.23;;;;;;;7.63;65.54;99286.44;127995;1101;22693;-77
2021/03/13 07:12:38;;;;;;;12.63;7.58;;;;;;;7.99;64.73;99294.55;128114;1100;22523;-75
2021/03/13 07:15:20;;;;;;;18.90;11.08;;;;;;;8.39;64.03;99297.84;128212;1100;22524;-75
2021/03/13 07:17:58;;;;;;;13.93;8.60;;;;;;;8.75;62.64;99290.07;127997;1101;22522;-75
2021/03/13 07:20:30;;;;;;;10.08;6.42;;;;;;;9.09;61.84;99293.95;127934;1101;22331;-75
2021/03/13 07:23:05;;;;;;;8.10;5.33;;;;;;;9.29;60.63;99286.28;127975;1099;23868;-74
2021/03/13 07:25:34;;;;;;;9.08;5.37;;;;;;;9.61;59.98;99291.10;128172;1101;22520;-75
2021/03/13 07:28:04;;;;;;;14.58;11.43;;;;;;;9.94;59.56;99287.97;128219;1099;22481;-74
2021/03/13 07:30:35;;;;;;;18.67;14.65;;;;;;;10.17;58.19;99287.76;128207;1100;22489;-74
2021/03/13 07:33:14;;;;;;;14.93;10.45;;;;;;;10.43;58.04;99286.33;128188;1101;22513;-74
2021/03/13 07:35:51;;;;;;;14.53;10.08;;;;;;;10.73;56.94;99282.48;128273;1100;24575;-75
2021/03/13 07:38:22;;;;;;;13.28;8.73;;;;;;;10.96;55.95;99282.20;128212;1100;22501;-75
2021/03/13 07:40:52;;;;;;;12.05;6.72;;;;;;;11.15;55.04;99277.18;128065;1101;24575;-75
2021/03/13 07:43:22;;;;;;;10.80;6.12;;;;;;;11.33;54.56;99289.84;128192;1100;24628;-75
2021/03/13 07:45:52;;;;;;;11.22;6.28;;;;;;;11.50;53.97;99278.72;128038;1101;22526;-76
2021/03/13 07:48:22;;;;;;;11.28;6.92;;;;;;;11.72;53.61;99289.12;128322;1101;23245;-76
2021/03/13 07:50:51;;;;;;;11.80;6.85;;;;;;;11.89;52.82;99279.81;128006;1100;22498;-76
2021/03/13 07:53:20;;;;;;;9.33;6.28;;;;;;;12.02;52.13;99289.60;128149;1101;22917;-76
2021/03/13 07:55:54;;;;;;;9.13;5.20;;;;;;;12.20;51.72;99286.36;128156;1099;22516;-76
2021/03/13 07:58:22;;;;;;;8.28;5.15;;;;;;;12.37;51.29;99284.11;128051;1101;22517;-78
2021/03/13 08:00:51;;;;;;;13.38;4.90;;;;;;;12.52;50.32;99287.34;127962;1101;22972;-78
2021/03/13 08:03:35;;;;;;;7.58;5.12;;;;;;;12.67;50.39;99287.93;128159;1101;23518;-78
2021/03/13 08:06:14;;;;;;;9.93;6.33;;;;;;;12.81;50.00;99287.90;128158;1100;22689;-78
2021/03/13 08:08:52;;;;;;;12.43;7.05;;;;;;;13.00;49.31;99281.73;128157;1101;22523;-79
2021/03/13 08:11:24;;;;;;;14.53;10.23;;;;;;;13.24;49.12;99282.04;128313;1100;22776;-78
2021/03/13 08:13:55;;;;;;;13.33;7.40;;;;;;;13.35;48.10;99284.85;128057;1101;22495;-76
2021/03/13 08:16:33;;;;;;;7.95;5.08;;;;;;;13.42;47.93;99290.13;128264;1101;22583;-74
2021/03/13 08:19:04;;;;;;;10.88;5.42;;;;;;;13.53;47.34;99292.13;127997;1101;22882;-75
2021/03/13 08:21:35;;;;;;;6.42;4.20;;;;;;;13.59;46.64;99285.13;128246;1101;22498;-74
2021/03/13 08:24:05;;;;;;;7.42;4.67;;;;;;;13.71;46.52;99274.66;128214;1100;22629;-74
2021/03/13 08:26:36;;;;;;;10.95;5.28;;;;;;;13.98;46.18;99273.44;128027;1099;22641;-74
2021/03/13 08:29:09;;;;;;;;;;;;;;;14.05;43.65;99276.85;128200;1101;22484;-74
2021/03/13 08:31:45;;;;;;;15.40;8.53;;;;;;;14.12;45.38;99274.14;128189;1099;21307;-75
2021/03/13 08:34:17;;;;;;;9.65;5.47;;;;;;;14.43;44.92;99265.30;128181;1099;22493;-75
2021/03/13 08:36:50;;;;;;;10.18;6.55;;;;;;;14.76;44.88;99261.50;128240;1101;22487;-77
2021/03/13 08:39:27;;;;;;;11.18;6.58;;;;;;;14.87;43.39;99266.09;128255;1100;22614;-77
2021/03/13 08:41:57;;;;;;;14.45;6.62;;;;;;;15.09;43.28;99257.64;128044;1099;22526;-76
2021/03/13 08:44:25;;;;;;;7.15;5.25;;;;;;;15.06;42.00;99251.75;128175;1100;24590;-75
2021/03/13 08:47:08;;;;;;;11.88;7.42;;;;;;;15.30;42.56;99260.65;128223;1099;22497;-76
2021/03/13 08:49:50;;;;;;;10.80;6.08;;;;;;;15.55;41.95;99262.34;128237;1099;22648;-76
2021/03/13 08:52:22;;;;;;;9.38;5.80;;;;;;;15.76;40.77;99253.05;128154;1099;22493;-76
2021/03/13 08:54:54;;;;;;;9.67;5.17;;;;;;;16.02;40.23;99248.36;128195;1101;22481;-76
2021/03/13 08:57:25;;;;;;;8.68;6.25;;;;;;;16.16;39.68;99241.76;128261;1100;22400;-76
2021/03/13 08:59:53;;;;;;;9.55;5.95;;;;;;;16.08;39.51;99228.80;128239;1101;22526;-76
2021/03/13 09:02:29;;;;;;;6.87;4.92;;;;;;;15.67;38.95;99241.13;128274;1100;22521;-76
2021/03/13 09:05:06;;;;;;;6.72;4.65;;;;;;;15.32;39.95;99244.45;128274;1100;22652;-76
2021/03/13 09:07:34;;;;;;;8.38;5.17;;;;;;;15.13;39.92;99230.39;128194;1099;22584;-77
2021/03/13 09:10:06;;;;;;;7.92;5.65;;;;;;;14.99;39.05;99226.25;128028;1101;24072;-75
2021/03/13 09:12:36;;;;;;;6.87;4.62;;;;;;;14.70;39.80;99228.66;127988;1099;22566;-77
2021/03/13 09:15:09;;;;;;;9.08;5.08;;;;;;;14.30;39.68;99222.92;128261;1101;22485;-77
2021/03/13 09:17:38;;;;;;;8.08;4.53;;;;;;;13.77;40.04;99220.73;128030;1101;22639;-76
2021/03/13 09:20:13;;;;;;;7.28;5.00;;;;;;;13.49;41.00;99221.92;128200;1100;22490;-76
2021/03/13 09:22:47;;;;;;;6.45;4.10;;;;;;;13.72;41.59;99212.59;128080;1101;22499;-76
2021/03/13 09:25:22;;;;;;;8.48;4.90;;;;;;;14.15;41.71;99209.16;128199;1099;22616;-77
2021/03/13 09:27:52;;;;;;;8.45;4.62;;;;;;;14.31;41.41;99204.09;128250;1100;22522;-76
2021/03/13 09:30:27;;;;;;;7.28;5.17;;;;;;;14.21;40.63;99205.64;128035;1101;22481;-77
2021/03/13 09:32:56;;;;;;;9.53;5.30;;;;;;;14.14;41.11;99200.39;128287;1101;22523;-77
2021/03/13 09:35:27;;;;;;;6.30;3.87;;;;;;;14.47;40.65;99193.94;128281;1101;22584;-77
2021/03/13 09:37:56;;;;;;;10.48;5.37;;;;;;;14.46;40.35;99187.81;128287;1099;22480;-77
2021/03/13 09:40:26;;;;;;;5.60;3.75;;;;;;;14.53;40.29;99179.80;128279;1099;22523;-77
2021/03/13 09:42:55;;;;;;;5.53;3.60;;;;;;;14.69;39.92;99181.02;128348;1099;25348;-77
2021/03/13 09:45:25;;;;;;;8.95;5.42;;;;;;;14.83;39.45;99179.84;128332;1099;22505;-77
2021/03/13 09:48:02;;;;;;;7.57;5.03;;;;;;;14.72;38.82;99180.58;128181;1099;22493;-76
2021/03/13 09:50:38;;;;;;;6.12;4.58;;;;;;;14.38;39.15;99177.45;128021;1101;24335;-76
2021/03/13 09:53:08;;;;;;;8.65;5.17;;;;;;;14.16;39.81;99176.25;128010;1101;22485;-77
2021/03/13 09:55:41;;;;;;;7.60;4.10;;;;;;;14.04;39.88;99171.67;128245;1099;22490;-77
2021/03/13 09:58:10;;;;;;;7.20;4.67;;;;;;;14.04;39.68;99154.94;128214;1101;23257;-76
2021/03/13 10:00:41;;;;;;;8.40;4.65;;;;;;;14.26;40.02;99168.59;128210;1101;22476;-77
2021/03/13 10:03:16;;;;;;;11.08;6.17;;;;;;;14.39;39.83;99171.10;128237;1100;22610;-77
2021/03/13 10:05:52;;;;;;;9.35;5.95;;;;;;;14.30;39.13;99159.97;128214;1100;24478;-77
2021/03/13 10:08:34;;;;;;;10.60;3.92;;;;;;;14.45;39.33;99162.25;128270;1101;22527;-77
2021/03/13 10:11:04;;;;;;;5.53;3.10;;;;;;;14.50;39.04;99149.16;128236;1101;22487;-78
2021/03/13 10:13:33;;;;;;;6.33;4.47;;;;;;;14.62;38.95;99151.05;128203;1099;22492;-76
2021/03/13 10:16:03;;;;;;;5.22;3.12;;;;;;;14.85;39.08;99143.19;127982;1101;22550;-78
2021/03/13 10:18:38;;;;;;;7.95;5.47;;;;;;;14.99;38.75;99139.30;128188;1100;22613;-77
2021/03/13 10:21:07;;;;;;;9.60;5.60;;;;;;;15.20;38.10;99142.52;127934;1101;22564;-77
2021/03/13 10:23:38;;;;;;;7.53;5.28;;;;;;;15.34;38.30;99143.12;128256;1100;22524;-77
2021/03/13 10:26:15;;;;;;;27.07;6.70;;;;;;;15.52;37.41;99143.83;128196;1101;23426;-76
2021/03/13 10:28:47;;;;;;;8.53;4.15;;;;;;;15.47;36.79;99126.95;128287;1100;22493;-76
2021/03/13 10:31:27;;;;;;;7.20;5.37;;;;;;;15.12;36.47;99132.18;128221;1101;22479;-76
2021/03/13 10:34:00;;;;;;;6.15;2.87;;;;;;;14.63;37.27;99128.75;128252;1101;24591;-78
2021/03/13 10:36:44;;;;;;;9.45;4.85;;;;;;;14.23;37.45;99118.56;128158;1100;22495;-76
2021/03/13 10:39:13;;;;;;;7.12;4.92;;;;;;;14.05;37.82;99122.84;128087;1101;22932;-76
2021/03/13 10:42:01;;;;;;;9.70;4.80;;;;;;;13.88;38.16;99119.14;128110;1101;22567;-76
2021/03/13 10:44:29;;;;;;;11.12;5.17;;;;;;;14.01;39.24;99116.34;128062;1101;22520;-75
2021/03/13 10:46:59;;;;;;;14.53;10.23;;;;;;;14.26;38.91;99110.15;128059;1101;22472;-75
2021/03/13 10:49:28;;;;;;;7.58;6.20;;;;;;;14.48;38.96;99113.17;128299;1101;22616;-76
2021/03/13 10:51:56;;;;;;;5.92;4.70;;;;;;;14.67;37.65;99103.37;128264;1100;23359;-78
2021/03/13 10:54:30;;;;;;;12.60;7.25;;;;;;;14.67;37.86;99090.88;128153;1101;22475;-76
2021/03/13 10:57:07;;;;;;;8.68;5.85;;;;;;;14.31;37.22;99094.37;127986;1100;23533;-76
2021/03/13 10:59:36;;;;;;;8.50;5.95;;;;;;;13.62;37.51;99089.16;127988;1101;22696;-77
2021/03/13 11:02:04;;;;;;;10.68;6.55;;;;;;;13.28;38.54;99082.52;127970;1101;22529;-74
2021/03/13 11:04:33;;;;;;;7.05;5.95;;;;;;;13.11;38.63;99079.55;128155;1099;22488;-75
2021/03/13 11:07:01;;;;;;;7.35;6.03;;;;;;;13.00;39.05;99067.00;127974;1101;22492;-74
2021/03/13 11:09:30;;;;;;;6.45;4.55;;;;;;;12.92;39.01;99072.54;128191;1101;23387;-74
2021/03/13 11:11:58;;;;;;;9.33;5.85;;;;;;;12.81;39.13;99059.98;127971;1101;22526;-74
2021/03/13 11:14:27;;;;;;;9.30;6.72;;;;;;;12.76;39.92;99055.30;128182;1099;24983;-74
2021/03/13 11:16:55;;;;;;;15.93;6.55;;;;;;;12.71;39.98;99044.55;128166;1101;22525;-74
2021/03/13 11:19:25;;;;;;;9.95;6.30;;;;;;;12.46;40.11;99047.13;128205;1101;24411;-75
2021/03/13 11:21:54;;;;;;;10.63;6.72;;;;;;;12.23;40.93;99039.72;128170;1101;24633;-75
2021/03/13 11:24:23;;;;;;;17.02;10.58;;;;;;;12.11;41.33;99055.44;127987;1101;22526;-74
2021/03/13 11:26:52;;;;;;;11.00;7.50;;;;;;;12.00;41.66;99034.92;127979;1101;22471;-74
2021/03/13 11:29:20;;;;;;;12.18;8.10;;;;;;;12.06;41.88;99038.55;128150;1101;22486;-74
2021/03/13 11:31:50;;;;;;;7.90;5.47;;;;;;;12.11;42.08;99033.45;128217;1101;22502;-75
2021/03/13 11:34:19;;;;;;;6.62;4.37;;;;;;;11.96;41.95;99029.23;127959;1101;22522;-75
2021/03/13 11:36:47;;;;;;;8.95;4.35;;;;;;;11.76;42.32;99037.20;127963;1101;22538;-75
2021/03/13 11:39:16;;;;;;;6.78;4.15;;;;;;;11.62;42.48;99029.48;127958;1101;22493;-75
2021/03/13 11:42:03;;;;;;;7.58;3.70;;;;;;;11.48;42.85;99031.34;127946;1101;22496;-75
2021/03/13 11:44:31;;;;;;;8.60;5.67;;;;;;;11.36;43.38;99039.06;128194;1101;23406;-79
2021/03/13 11:47:00;;;;;;;10.25;7.08;;;;;;;11.33;43.41;99025.45;128015;1100;22693;-77
2021/03/13 11:49:29;;;;;;;18.77;12.30;;;;;;;11.20;44.05;99037.67;128210;1101;22477;-74